Aviation Digital Data Service (ADDS)

Output produced by METARs form (0231 UTC 16 January 2019)
found at http://www.aviationweather.gov/metar/data/
 
OLBA 160200Z 19020KT 8000 FEW026 SCT080 15/02 Q1009 NOSIG
TAF OLBA 152200Z 1600/1706 19028G35KT 8000 BKN070 
     BECMG 1603/1606 20030G45KT SCT026 SCT070 
     BECMG 1606/1609 22030G40KT 7000 -RA BKN026 
     BECMG 1609/1612 23025G35KT RA BKN023 
     TEMPO 1609/1624 4000 TSSHRA FEW020CB OVC023 
     BECMG 1700/1703 29015KT 8000 -RA SCT025 SCT070